Terminal Aerodrome Forecast
Issued by NWS Binghamton, NY

Home | Current Version | Previous Version | Text Only | Print | Product List | Glossary On
Versions: 1 2 3 4 5 6 7 8 9 10 11 12 13 14 15 16 17 18
000
FTUS41 KBGM 171724
TAFAVP
TAF
KAVP 171724Z 1718/1818 32010G18KT P6SM SCT250
     FM172300 VRB03KT P6SM SCT250
     FM180900 15005KT P6SM BKN150
     FM181600 21008KT P6SM -RA OVC040=

USA.gov is the U.S. government's official web portal to all federal, state and local government web resources and services.